Time;durP1;ratioP1;P1;durP2;ratioP2;P2;SDS_P1;SDS_P2;PMS_P1;PMS_P2;Temp;Humidity;BMP_temperature;BMP_pressure;BME280_temperature;BME280_humidity;BME280_pressure;Samples;Min_cycle;Max_cycle;Signal;HPM_P1;HPM_P2
2021/12/09 00:01:43;;;;;;;8.07;7.47;;;-0.60;99.90;;;;;;5039152;28;20219;-76
2021/12/09 00:04:14;;;;;;;6.90;6.30;;;-0.60;99.90;;;;;;5038229;28;20608;-76
2021/12/09 00:06:44;;;;;;;40.40;12.43;;;-0.60;99.90;;;;;;5049942;28;20226;-77
2021/12/09 00:09:13;;;;;;;8.93;8.23;;;-0.70;99.90;;;;;;5050983;28;20225;-76
2021/12/09 00:11:44;;;;;;;9.30;8.60;;;-0.80;99.90;;;;;;5052645;28;20586;-76
2021/12/09 00:14:15;;;;;;;8.48;7.85;;;-0.80;99.90;;;;;;5054658;28;20226;-78
2021/12/09 00:16:42;;;;;;;9.27;8.55;;;-0.80;99.90;;;;;;5050954;28;20222;-76
2021/12/09 00:19:09;;;;;;;8.82;8.05;;;-0.70;99.90;;;;;;5057936;28;20230;-78
2021/12/09 00:21:36;;;;;;;9.50;8.75;;;-0.70;99.90;;;;;;5051390;28;20230;-77
2021/12/09 00:24:04;;;;;;;9.57;8.75;;;-0.80;99.90;;;;;;5051718;28;20225;-77
2021/12/09 00:26:31;;;;;;;9.48;8.68;;;-0.90;99.90;;;;;;5052177;28;21342;-77
2021/12/09 00:28:58;;;;;;;8.68;7.97;;;-0.80;99.90;;;;;;5055846;28;20242;-75
2021/12/09 00:31:27;;;;;;;9.20;8.50;;;-0.80;99.90;;;;;;5052648;28;20287;-76
2021/12/09 00:33:56;;;;;;;8.98;8.27;;;-0.70;99.90;;;;;;5053209;28;20215;-78
2021/12/09 00:36:31;;;;;;;8.70;8.00;;;-0.70;99.90;;;;;;5056835;28;20309;-76
2021/12/09 00:38:59;;;;;;;8.52;7.85;;;-0.70;99.90;;;;;;5051796;28;20318;-75
2021/12/09 00:41:27;;;;;;;9.18;8.32;;;-0.70;99.90;;;;;;5046987;28;20769;-77
2021/12/09 00:43:54;;;;;;;8.05;7.45;;;-0.70;99.90;;;;;;5055611;28;20226;-76
2021/12/09 00:46:22;;;;;;;11.93;10.90;;;-0.70;99.90;;;;;;5047670;28;20226;-76
2021/12/09 00:48:51;;;;;;;9.70;8.80;;;-0.80;99.90;;;;;;5048439;28;20238;-76
2021/12/09 00:51:18;;;;;;;9.50;8.77;;;-0.90;99.90;;;;;;5044262;28;20230;-76
2021/12/09 00:53:45;;;;;;;8.82;8.13;;;-0.90;99.90;;;;;;5050678;28;20219;-77
2021/12/09 00:56:14;;;;;;;8.60;7.97;;;-0.90;99.90;;;;;;5053422;28;20662;-76
2021/12/09 00:58:42;;;;;;;7.70;7.10;;;-0.80;99.90;;;;;;5049853;28;20725;-77
2021/12/09 01:01:10;;;;;;;7.72;7.13;;;-0.70;99.90;;;;;;5021713;28;20305;-77
2021/12/09 01:03:38;;;;;;;6.28;5.88;;;-0.60;99.90;;;;;;5051433;28;20222;-76
2021/12/09 01:06:07;;;;;;;7.18;6.57;;;-0.50;99.90;;;;;;5055634;28;20292;-77
2021/12/09 01:08:34;;;;;;;6.32;5.93;;;-0.40;99.90;;;;;;5050877;28;20238;-76
2021/12/09 01:11:02;;;;;;;6.65;6.05;;;-0.40;99.90;;;;;;5068653;28;20230;-77
2021/12/09 01:13:29;;;;;;;8.63;7.90;;;-0.40;99.90;;;;;;5048352;28;20223;-77
2021/12/09 01:15:57;;;;;;;7.95;7.25;;;-0.50;99.90;;;;;;5045628;28;20249;-76
2021/12/09 01:18:24;;;;;;;10.75;9.85;;;-0.60;99.90;;;;;;5046263;28;20227;-76
2021/12/09 01:20:52;;;;;;;10.95;9.95;;;-0.80;99.90;;;;;;5051295;28;20238;-77
2021/12/09 01:23:20;;;;;;;10.40;9.60;;;-0.90;99.90;;;;;;5048758;28;20231;-77
2021/12/09 01:25:49;;;;;;;10.45;9.55;;;-1.00;99.90;;;;;;5047524;28;20219;-77
2021/12/09 01:28:22;;;;;;;8.68;7.97;;;-1.00;99.90;;;;;;5047866;28;20293;-77
2021/12/09 01:30:50;;;;;;;7.82;7.22;;;-1.00;99.90;;;;;;5052548;28;20774;-77
2021/12/09 01:33:18;;;;;;;8.23;7.53;;;-0.90;99.90;;;;;;5049469;28;20779;-76
2021/12/09 01:35:48;;;;;;;7.43;6.85;;;-0.80;99.90;;;;;;5050863;28;20233;-77
2021/12/09 01:38:17;;;;;;;8.65;7.95;;;-0.70;99.90;;;;;;5047231;28;20294;-77
2021/12/09 01:40:46;;;;;;;9.27;8.48;;;-0.70;99.90;;;;;;5049556;28;20722;-76
2021/12/09 01:43:14;;;;;;;8.85;8.15;;;-0.80;99.90;;;;;;5046492;28;20235;-76
2021/12/09 01:45:42;;;;;;;7.43;6.93;;;-0.80;99.90;;;;;;5050060;28;20237;-77
2021/12/09 01:48:09;;;;;;;7.18;6.63;;;-0.70;99.90;;;;;;5053024;28;20238;-78
2021/12/09 01:50:36;;;;;;;6.50;6.00;;;-0.70;99.90;;;;;;5047677;28;20222;-76
2021/12/09 01:53:04;;;;;;;6.15;5.75;;;-0.60;99.90;;;;;;5049810;28;20242;-76
2021/12/09 01:55:31;;;;;;;5.75;5.45;;;-0.50;99.90;;;;;;5051558;28;20769;-76
2021/12/09 01:58:01;;;;;;;4.82;4.53;;;-0.50;99.90;;;;;;5046925;28;20230;-76
2021/12/09 02:00:37;;;;;;;5.20;4.90;;;-0.40;99.90;;;;;;5047705;28;20214;-76
2021/12/09 02:03:05;;;;;;;4.57;4.28;;;-0.40;99.90;;;;;;5046101;28;20726;-77
2021/12/09 02:05:32;;;;;;;7.22;6.63;;;-0.30;99.90;;;;;;5053404;28;20321;-77
2021/12/09 02:07:59;;;;;;;6.88;6.38;;;-0.40;99.90;;;;;;5054153;28;20671;-77
2021/12/09 02:10:27;;;;;;;6.68;6.18;;;-0.50;99.90;;;;;;5051758;28;20215;-76
2021/12/09 02:12:54;;;;;;;8.77;8.18;;;-0.50;99.90;;;;;;5054724;28;20218;-76
2021/12/09 02:15:24;;;;;;;9.43;8.65;;;-0.60;99.90;;;;;;5052455;28;20226;-76
2021/12/09 02:17:51;;;;;;;9.27;8.57;;;-0.70;99.90;;;;;;5051609;28;20313;-77
2021/12/09 02:20:19;;;;;;;8.80;8.10;;;-0.80;99.90;;;;;;5044487;28;20231;-77
2021/12/09 02:22:50;;;;;;;7.72;7.13;;;-0.80;99.90;;;;;;5058031;28;20222;-76
2021/12/09 02:25:19;;;;;;;7.60;7.10;;;-0.80;99.90;;;;;;5048135;28;20646;-76
2021/12/09 02:27:46;;;;;;;7.13;6.63;;;-0.70;99.90;;;;;;5048673;28;20231;-77
2021/12/09 02:30:14;;;;;;;6.20;5.80;;;-0.60;99.90;;;;;;5046491;28;20222;-77
2021/12/09 02:32:42;;;;;;;5.50;5.20;;;-0.60;99.90;;;;;;5050433;28;20651;-77
2021/12/09 02:35:10;;;;;;;5.22;4.93;;;-0.50;99.90;;;;;;5044228;28;20235;-76
2021/12/09 02:37:37;;;;;;;5.32;5.00;;;-0.40;99.90;;;;;;5051338;28;20238;-77
2021/12/09 02:40:08;;;;;;;5.28;4.97;;;-0.30;99.90;;;;;;5049333;28;20238;-77
2021/12/09 02:42:35;;;;;;;6.00;5.60;;;-0.30;99.90;;;;;;5049321;28;20222;-76
2021/12/09 02:45:04;;;;;;;4.85;4.55;;;-0.20;99.90;;;;;;5049053;28;20288;-77
2021/12/09 02:47:32;;;;;;;4.80;4.50;;;-0.20;99.90;;;;;;5048106;28;20238;-76
2021/12/09 02:49:59;;;;;;;5.07;4.78;;;-0.20;99.90;;;;;;5048503;28;20233;-77
2021/12/09 02:52:26;;;;;;;5.25;4.85;;;-0.20;99.90;;;;;;5044891;28;20237;-77
2021/12/09 02:54:53;;;;;;;4.82;4.53;;;-0.20;99.90;;;;;;5049887;28;20280;-76
2021/12/09 03:01:05;;;;;;;4.90;4.60;;;-0.20;99.90;;;;;;5044726;28;20658;-76
2021/12/09 03:03:32;;;;;;;4.53;4.32;;;-0.20;99.90;;;;;;5048208;28;20341;-76
2021/12/09 03:06:02;;;;;;;4.35;4.15;;;-0.20;99.90;;;;;;5049478;28;20229;-76
2021/12/09 03:08:35;;;;;;;4.82;4.53;;;-0.20;99.90;;;;;;5053147;28;20232;-76
2021/12/09 03:11:08;;;;;;;5.50;5.15;;;-0.20;99.90;;;;;;5046672;28;20238;-77
2021/12/09 03:13:35;;;;;;;5.55;5.25;;;-0.20;99.90;;;;;;5041156;28;20700;-77
2021/12/09 03:16:04;;;;;;;6.60;6.20;;;-0.30;99.90;;;;;;5054207;28;20695;-77
2021/12/09 03:18:31;;;;;;;6.50;6.00;;;-0.40;99.90;;;;;;5038401;28;20497;-75
2021/12/09 03:20:58;;;;;;;5.78;5.38;;;-0.40;99.90;;;;;;5058546;28;20226;-76
2021/12/09 03:23:27;;;;;;;6.22;5.82;;;-0.50;99.90;;;;;;5047888;28;20223;-77
2021/12/09 03:25:54;;;;;;;5.90;5.50;;;-0.40;99.90;;;;;;5050877;28;20236;-76
2021/12/09 03:28:21;;;;;;;4.38;4.15;;;-0.40;99.90;;;;;;5083022;22;20362;-67
2021/12/09 03:30:48;;;;;;;5.15;4.85;;;-0.40;99.90;;;;;;5070924;28;20841;-67
2021/12/09 03:33:17;;;;;;;5.10;4.75;;;-0.40;99.90;;;;;;5073100;28;20221;-67
2021/12/09 03:35:44;;;;;;;5.50;5.10;;;-0.40;99.90;;;;;;5073596;28;20267;-68
2021/12/09 03:38:11;;;;;;;5.15;4.75;;;-0.40;99.90;;;;;;5073064;28;20229;-67
2021/12/09 03:40:38;;;;;;;5.43;5.13;;;-0.40;99.90;;;;;;5075312;28;20229;-67
2021/12/09 03:43:05;;;;;;;5.07;4.78;;;-0.40;99.90;;;;;;5077423;28;20225;-66
2021/12/09 03:45:32;;;;;;;5.70;5.30;;;-0.40;99.90;;;;;;5080817;28;20604;-67
2021/12/09 03:47:59;;;;;;;5.75;5.25;;;-0.40;99.90;;;;;;5078424;28;20662;-67
2021/12/09 03:50:28;;;;;;;5.47;4.97;;;-0.30;99.90;;;;;;5080801;28;20233;-67
2021/12/09 03:52:55;;;;;;;6.00;5.60;;;-0.30;99.90;;;;;;5085510;28;20282;-67
2021/12/09 03:55:22;;;;;;;5.25;4.90;;;-0.30;99.90;;;;;;5082703;28;20700;-67
2021/12/09 03:57:49;;;;;;;5.38;4.97;;;-0.30;99.90;;;;;;5074465;28;20671;-66
2021/12/09 04:00:16;;;;;;;5.05;4.70;;;-0.30;99.90;;;;;;5075364;28;20600;-67
2021/12/09 04:02:43;;;;;;;5.72;5.22;;;-0.40;99.90;;;;;;5082931;28;20230;-67
2021/12/09 04:05:11;;;;;;;5.25;4.95;;;-0.40;99.90;;;;;;5078015;28;20580;-66
2021/12/09 04:07:39;;;;;;;4.15;3.90;;;-0.40;99.90;;;;;;5073717;28;20229;-66
2021/12/09 04:10:07;;;;;;;3.80;3.50;;;-0.40;99.90;;;;;;5072939;28;20232;-67
2021/12/09 04:12:34;;;;;;;4.80;4.50;;;-0.40;99.90;;;;;;5075500;28;20595;-67
2021/12/09 04:15:02;;;;;;;4.32;4.13;;;-0.40;99.90;;;;;;5082907;28;20279;-66
2021/12/09 04:17:29;;;;;;;4.90;4.45;;;-0.50;99.90;;;;;;5076496;28;20226;-67
2021/12/09 04:19:56;;;;;;;5.20;4.90;;;-0.60;99.90;;;;;;5086891;28;20220;-67
2021/12/09 04:22:23;;;;;;;4.72;4.43;;;-0.60;99.90;;;;;;5091859;28;20236;-67
2021/12/09 04:24:53;;;;;;;4.90;4.60;;;-0.60;99.90;;;;;;5093241;28;20217;-67
2021/12/09 04:27:21;;;;;;;4.30;4.00;;;-0.50;99.90;;;;;;5084708;28;20278;-67
2021/12/09 04:29:48;;;;;;;4.63;4.38;;;-0.50;99.90;;;;;;5082844;28;20229;-67
2021/12/09 04:32:16;;;;;;;4.22;4.03;;;-0.40;99.90;;;;;;5086236;28;20213;-67
2021/12/09 04:34:44;;;;;;;4.50;4.20;;;-0.30;99.90;;;;;;5070885;28;20275;-67
2021/12/09 04:37:11;;;;;;;4.60;4.30;;;-0.30;99.90;;;;;;5082311;28;20232;-67
2021/12/09 04:39:39;;;;;;;4.88;4.57;;;-0.20;99.90;;;;;;5078601;28;20222;-67
2021/12/09 04:42:07;;;;;;;4.90;4.60;;;-0.10;99.90;;;;;;5073647;28;20283;-67
2021/12/09 04:44:34;;;;;;;4.38;4.07;;;-0.10;99.90;;;;;;5084860;28;20291;-67
2021/12/09 04:47:02;;;;;;;4.40;4.20;;;0.00;99.90;;;;;;5074343;28;20276;-67
2021/12/09 04:49:29;;;;;;;4.20;3.90;;;0.00;99.90;;;;;;5083289;28;20217;-67
2021/12/09 04:51:57;;;;;;;3.88;3.67;;;0.00;99.90;;;;;;5083888;28;20228;-67
2021/12/09 04:54:24;;;;;;;4.30;4.00;;;0.00;99.90;;;;;;5077406;28;20712;-67
2021/12/09 04:56:52;;;;;;;4.10;3.90;;;0.10;99.90;;;;;;5076661;28;20719;-67
2021/12/09 04:59:21;;;;;;;5.25;4.93;;;0.10;99.90;;;;;;5076287;28;20232;-67
2021/12/09 05:01:50;;;;;;;5.60;5.20;;;0.10;99.90;;;;;;5082976;28;20217;-67
2021/12/09 05:04:18;;;;;;;6.28;5.78;;;0.00;99.90;;;;;;5082128;28;20300;-67
2021/12/09 05:06:45;;;;;;;6.93;6.43;;;-0.10;99.90;;;;;;5078985;28;20249;-67
2021/12/09 05:09:17;;;;;;;8.32;7.72;;;-0.30;99.90;;;;;;5073450;28;20879;-67
2021/12/09 05:11:49;;;;;;;7.28;6.72;;;-0.40;99.90;;;;;;5081798;28;20317;-67
2021/12/09 05:14:17;;;;;;;6.47;6.07;;;-0.40;99.90;;;;;;5077447;28;20271;-67
2021/12/09 05:16:47;;;;;;;6.00;5.60;;;-0.50;99.90;;;;;;5075761;28;20233;-68
2021/12/09 05:19:14;;;;;;;5.60;5.20;;;-0.50;99.90;;;;;;5069061;28;20766;-67
2021/12/09 05:21:41;;;;;;;5.35;4.95;;;-0.40;99.90;;;;;;5076804;28;20723;-67
2021/12/09 05:24:10;;;;;;;4.95;4.65;;;-0.40;99.90;;;;;;5082013;28;20217;-67
2021/12/09 05:26:43;;;;;;;5.30;5.00;;;-0.30;99.90;;;;;;5078227;28;20754;-67
2021/12/09 05:29:11;;;;;;;4.75;4.45;;;-0.30;99.90;;;;;;5078205;28;20225;-67
2021/12/09 05:34:24;;;;;;;4.70;4.40;;;-0.20;99.90;;;;;;5074849;28;20228;-67
2021/12/09 05:36:52;;;;;;;4.82;4.53;;;-0.20;99.90;;;;;;5080897;28;20885;-67
2021/12/09 05:39:19;;;;;;;5.25;4.95;;;-0.10;99.90;;;;;;5080229;28;20224;-67
2021/12/09 05:41:47;;;;;;;4.75;4.53;;;-0.10;99.90;;;;;;5078538;28;20217;-67
2021/12/09 05:44:15;;;;;;;6.20;5.80;;;-0.10;99.90;;;;;;5069069;28;20229;-69
2021/12/09 05:46:45;;;;;;;6.18;5.68;;;-0.10;99.90;;;;;;5079355;28;20603;-69
2021/12/09 05:49:13;;;;;;;7.25;6.75;;;-0.10;99.90;;;;;;5090655;28;20286;-69
2021/12/09 05:51:42;;;;;;;7.00;6.40;;;-0.20;99.90;;;;;;5091691;28;20282;-67
2021/12/09 05:54:10;;;;;;;6.30;5.90;;;-0.20;99.90;;;;;;5084760;28;20228;-67
2021/12/09 05:56:37;;;;;;;6.40;6.00;;;-0.20;99.90;;;;;;5077382;28;20217;-67
2021/12/09 05:59:07;;;;;;;6.28;5.55;;;-0.20;99.90;;;;;;5078364;28;20225;-67
2021/12/09 06:01:34;;;;;;;5.60;5.20;;;-0.20;99.90;;;;;;5069960;28;20722;-66
2021/12/09 06:04:01;;;;;;;5.38;5.00;;;-0.20;99.90;;;;;;5074179;28;20222;-67
2021/12/09 06:06:28;;;;;;;5.93;5.63;;;-0.20;99.90;;;;;;5069762;28;20238;-67
2021/12/09 06:08:57;;;;;;;5.50;5.18;;;-0.20;99.90;;;;;;5073365;28;20291;-67
2021/12/09 06:11:24;;;;;;;5.30;5.00;;;-0.20;99.90;;;;;;5080731;28;20282;-68
2021/12/09 06:13:52;;;;;;;5.07;4.78;;;-0.20;99.90;;;;;;5082982;28;20231;-67
2021/12/09 06:16:20;;;;;;;5.05;4.75;;;0.00;99.90;;;;;;5075992;28;20213;-67
2021/12/09 06:18:48;;;;;;;5.10;4.80;;;0.00;99.90;;;;;;5073757;28;20244;-67
2021/12/09 06:21:15;;;;;;;4.72;4.38;;;0.10;99.90;;;;;;5082573;28;20703;-67
2021/12/09 06:23:43;;;;;;;4.53;4.22;;;0.10;99.90;;;;;;5078489;28;20656;-68
2021/12/09 06:26:11;;;;;;;4.40;4.18;;;0.10;99.90;;;;;;5075482;28;20225;-67
2021/12/09 06:28:39;;;;;;;4.57;4.28;;;0.10;99.90;;;;;;5070570;28;20229;-67
2021/12/09 06:31:06;;;;;;;4.78;4.47;;;0.00;99.90;;;;;;5060545;28;20225;-68
2021/12/09 06:33:33;;;;;;;4.75;4.55;;;0.00;99.90;;;;;;5074071;28;20229;-67
2021/12/09 06:36:01;;;;;;;4.97;4.68;;;0.00;99.90;;;;;;5071985;28;20240;-67
2021/12/09 06:38:28;;;;;;;5.03;4.72;;;0.00;99.90;;;;;;5073358;28;20221;-66
2021/12/09 06:40:55;;;;;;;5.30;4.97;;;0.00;99.90;;;;;;5071881;28;20225;-67
2021/12/09 06:43:23;;;;;;;5.07;4.78;;;0.10;99.90;;;;;;5071016;28;20342;-67
2021/12/09 06:45:53;;;;;;;5.00;4.70;;;0.10;99.90;;;;;;5079489;28;20218;-67
2021/12/09 06:48:20;;;;;;;4.90;4.60;;;0.20;99.90;;;;;;5077616;28;20286;-67
2021/12/09 06:50:47;;;;;;;4.82;4.53;;;0.20;99.90;;;;;;5077390;28;20225;-67
2021/12/09 06:53:16;;;;;;;5.57;5.18;;;0.10;99.90;;;;;;5074937;28;20253;-67
2021/12/09 06:55:44;;;;;;;5.97;5.57;;;0.10;99.90;;;;;;5072215;28;20259;-67
2021/12/09 06:58:11;;;;;;;5.47;5.13;;;0.10;99.90;;;;;;5082612;28;20298;-67
2021/12/09 07:00:46;;;;;;;5.63;5.22;;;0.10;99.90;;;;;;5083273;28;20714;-67
2021/12/09 07:03:16;;;;;;;5.80;5.40;;;0.20;99.90;;;;;;5080194;28;20667;-70
2021/12/09 07:05:44;;;;;;;5.50;5.10;;;0.20;99.90;;;;;;5070842;28;20302;-68
2021/12/09 07:08:12;;;;;;;5.38;5.07;;;0.30;99.90;;;;;;5070369;28;20623;-67
2021/12/09 07:10:39;;;;;;;5.25;4.85;;;0.30;99.90;;;;;;5075373;28;20229;-67
2021/12/09 07:13:06;;;;;;;5.20;4.90;;;0.40;99.90;;;;;;5079941;28;20229;-67
2021/12/09 07:15:34;;;;;;;5.50;5.10;;;0.40;99.90;;;;;;5083611;28;20264;-67
2021/12/09 07:18:03;;;;;;;4.50;4.25;;;0.50;99.90;;;;;;5073826;28;20230;-68
2021/12/09 07:20:31;;;;;;;5.10;4.80;;;0.50;99.90;;;;;;5078743;28;20221;-68
2021/12/09 07:22:58;;;;;;;5.05;4.75;;;0.60;99.90;;;;;;5073747;28;21523;-67
2021/12/09 07:25:27;;;;;;;5.22;4.93;;;0.60;99.90;;;;;;5076348;28;20225;-67
2021/12/09 07:27:55;;;;;;;5.40;5.00;;;0.60;99.90;;;;;;5075984;28;20261;-67
2021/12/09 07:30:24;;;;;;;5.05;4.75;;;0.70;99.90;;;;;;5074342;28;20707;-67
2021/12/09 07:32:54;;;;;;;5.35;5.05;;;0.70;99.90;;;;;;5081523;28;20279;-68
2021/12/09 07:35:26;;;;;;;5.40;5.10;;;0.80;99.90;;;;;;5076436;28;20225;-67
2021/12/09 07:37:53;;;;;;;5.72;5.32;;;0.80;99.90;;;;;;5079244;28;20212;-67
2021/12/09 07:40:20;;;;;;;5.40;5.03;;;0.90;99.90;;;;;;5061857;28;20263;-67
2021/12/09 07:42:47;;;;;;;4.72;4.43;;;0.90;99.90;;;;;;5075230;28;20296;-68
2021/12/09 07:45:17;;;;;;;4.72;4.43;;;1.00;99.90;;;;;;5069396;28;20228;-68
2021/12/09 07:47:45;;;;;;;5.18;4.78;;;1.10;99.90;;;;;;5073647;27;20299;-67
2021/12/09 07:50:14;;;;;;;5.13;4.82;;;1.20;99.90;;;;;;5070099;28;20279;-68
2021/12/09 07:52:44;;;;;;;4.93;4.53;;;1.30;99.90;;;;;;5076599;28;20221;-68
2021/12/09 07:55:13;;;;;;;4.50;4.20;;;1.40;99.90;;;;;;5075021;28;20719;-68
2021/12/09 07:57:41;;;;;;;5.40;5.10;;;1.40;99.90;;;;;;5081700;28;20673;-69
2021/12/09 08:00:12;;;;;;;4.55;4.30;;;1.50;99.90;;;;;;5083255;27;20279;-68
2021/12/09 08:02:39;;;;;;;4.55;4.25;;;1.60;99.90;;;;;;5070700;28;20335;-69
2021/12/09 08:05:07;;;;;;;4.80;4.50;;;1.70;99.90;;;;;;5078289;28;20225;-69
2021/12/09 08:07:35;;;;;;;4.50;4.20;;;1.70;99.90;;;;;;5075215;28;20256;-67
2021/12/09 08:10:04;;;;;;;4.85;4.55;;;1.70;99.90;;;;;;5060357;28;22203;-69
2021/12/09 08:12:32;;;;;;;4.18;3.97;;;1.80;99.90;;;;;;5068440;28;20229;-68
2021/12/09 08:14:58;;;;;;;4.35;4.15;;;1.90;99.90;;;;;;5065977;28;20241;-68
2021/12/09 08:17:44;;;;;;;4.43;4.13;;;2.00;99.90;;;;;;5067828;28;20663;-68
2021/12/09 08:20:13;;;;;;;4.00;3.80;;;2.00;99.90;;;;;;5064907;28;20217;-67
2021/12/09 08:22:41;;;;;;;4.25;4.00;;;2.00;99.90;;;;;;5075185;28;20217;-68
2021/12/09 08:25:12;;;;;;;4.78;4.47;;;2.10;99.90;;;;;;5077398;28;20683;-68
2021/12/09 08:27:43;;;;;;;4.53;4.22;;;2.10;99.90;;;;;;5070099;28;20776;-68
2021/12/09 08:30:12;;;;;;;3.88;3.67;;;2.10;99.90;;;;;;5073613;28;20764;-67
2021/12/09 08:32:40;;;;;;;4.30;4.00;;;2.10;99.90;;;;;;5070354;27;20710;-72
2021/12/09 08:35:08;;;;;;;4.30;4.00;;;2.20;99.90;;;;;;5068740;28;20606;-68
2021/12/09 08:37:35;;;;;;;4.10;3.88;;;2.20;99.90;;;;;;5071676;27;20607;-68
2021/12/09 08:40:03;;;;;;;5.38;5.00;;;2.30;99.90;;;;;;5072621;28;20749;-73
2021/12/09 08:42:32;;;;;;;5.68;5.28;;;2.30;99.90;;;;;;5065898;28;20226;-69
2021/12/09 08:44:59;;;;;;;6.60;6.10;;;2.30;99.90;;;;;;5067253;28;20234;-70
2021/12/09 08:47:26;;;;;;;6.82;6.22;;;2.40;99.90;;;;;;5063866;28;20229;-70
2021/12/09 08:49:53;;;;;;;6.88;6.28;;;2.40;99.90;;;;;;5062570;28;20225;-69
2021/12/09 08:52:20;;;;;;;6.28;5.72;;;2.40;99.90;;;;;;5064907;28;20220;-69
2021/12/09 08:54:47;;;;;;;7.10;6.22;;;2.40;99.90;;;;;;5073672;28;20244;-69
2021/12/09 08:57:14;;;;;;;6.60;6.00;;;2.40;99.90;;;;;;5068542;28;20686;-70
2021/12/09 08:59:42;;;;;;;6.25;5.75;;;2.40;99.90;;;;;;5072742;28;20654;-69
2021/12/09 09:02:09;;;;;;;7.40;6.80;;;2.30;99.90;;;;;;5061634;28;20222;-69
2021/12/09 09:04:37;;;;;;;5.95;5.55;;;2.40;99.90;;;;;;5069761;28;20710;-70
2021/12/09 09:07:05;;;;;;;6.15;5.65;;;2.40;99.90;;;;;;5065695;28;20229;-73
2021/12/09 09:09:34;;;;;;;5.95;5.50;;;2.40;99.90;;;;;;5068814;28;20815;-71
2021/12/09 09:12:03;;;;;;;4.93;4.63;;;2.50;99.90;;;;;;5062275;28;20225;-68
2021/12/09 09:14:30;;;;;;;5.07;4.78;;;2.60;99.90;;;;;;5067737;28;20217;-70
2021/12/09 09:16:59;;;;;;;5.82;5.43;;;2.60;99.90;;;;;;5066076;27;20575;-70
2021/12/09 09:19:27;;;;;;;5.30;4.90;;;2.70;99.90;;;;;;5068544;28;20271;-69
2021/12/09 09:21:54;;;;;;;5.93;5.43;;;2.80;99.90;;;;;;5064843;28;20226;-69
2021/12/09 09:24:21;;;;;;;6.85;6.35;;;2.80;99.90;;;;;;5065162;28;20300;-69
2021/12/09 09:26:48;;;;;;;7.72;7.13;;;2.70;99.90;;;;;;5066261;28;20282;-70
2021/12/09 09:29:16;;;;;;;8.50;7.60;;;2.60;99.90;;;;;;5062275;22;20232;-75
2021/12/09 09:31:44;;;;;;;7.90;7.30;;;2.60;99.90;;;;;;5036389;28;20230;-75
2021/12/09 09:34:12;;;;;;;7.68;7.07;;;2.60;99.90;;;;;;5032169;28;20219;-74
2021/12/09 09:36:44;;;;;;;7.22;6.72;;;2.60;99.90;;;;;;5036055;28;20600;-77
2021/12/09 09:39:18;;;;;;;7.28;6.68;;;2.70;99.90;;;;;;5032465;28;20698;-75
2021/12/09 09:41:48;;;;;;;6.50;5.95;;;2.80;99.90;;;;;;5035318;28;20226;-75
2021/12/09 09:44:17;;;;;;;7.03;6.43;;;2.80;99.90;;;;;;5033219;28;20230;-77
2021/12/09 09:46:45;;;;;;;6.38;5.97;;;2.90;99.90;;;;;;5029809;28;20230;-75
2021/12/09 09:49:14;;;;;;;6.20;5.63;;;2.90;99.90;;;;;;5033137;28;20427;-76
2021/12/09 09:51:41;;;;;;;7.28;6.65;;;3.00;99.90;;;;;;5033101;28;20222;-75
2021/12/09 09:54:09;;;;;;;7.43;6.82;;;3.10;99.90;;;;;;5035245;28;20658;-75
2021/12/09 09:56:41;;;;;;;6.50;5.93;;;3.20;99.90;;;;;;5031986;28;20233;-76
2021/12/09 09:59:11;;;;;;;5.90;5.50;;;3.20;99.90;;;;;;5030254;28;20246;-75
2021/12/09 10:01:41;;;;;;;5.55;5.15;;;3.20;99.90;;;;;;5028876;28;20226;-77
2021/12/09 10:04:13;;;;;;;6.78;6.15;;;3.20;99.90;;;;;;5029670;28;20250;-79
2021/12/09 10:06:44;;;;;;;6.53;6.00;;;3.20;99.90;;;;;;5031196;28;20219;-75
2021/12/09 10:09:12;;;;;;;6.25;5.80;;;3.20;99.90;;;;;;5037693;28;20345;-79
2021/12/09 10:11:40;;;;;;;7.55;6.85;;;3.20;99.90;;;;;;5032256;28;20647;-80
2021/12/09 10:14:13;;;;;;;7.85;7.20;;;3.20;99.90;;;;;;5034713;28;20219;-78
2021/12/09 10:16:42;;;;;;;7.20;6.60;;;3.20;99.90;;;;;;5023866;28;20231;-75
2021/12/09 10:19:17;;;;;;;7.85;7.05;;;3.20;99.90;;;;;;5036095;28;20230;-74
2021/12/09 10:21:47;;;;;;;8.38;7.25;;;3.20;99.90;;;;;;5032427;28;20668;-77
2021/12/09 10:24:14;;;;;;;8.07;7.28;;;3.20;99.90;;;;;;5032390;28;20254;-77
2021/12/09 10:26:43;;;;;;;8.20;7.50;;;3.20;99.90;;;;;;5035506;28;20490;-75
2021/12/09 10:29:16;;;;;;;7.70;7.03;;;3.20;99.90;;;;;;5032725;28;20230;-79
2021/12/09 10:31:48;;;;;;;7.80;7.10;;;3.20;99.90;;;;;;5034496;28;20643;-73
2021/12/09 10:34:32;;;;;;;7.63;6.95;;;3.20;99.90;;;;;;5032725;28;20689;-74
2021/12/09 10:37:06;;;;;;;8.13;7.43;;;3.10;99.90;;;;;;5035791;28;20232;-78
2021/12/09 10:39:40;;;;;;;8.50;7.70;;;3.10;99.90;;;;;;5031391;28;20234;-74
2021/12/09 10:42:10;;;;;;;9.85;8.90;;;3.20;99.90;;;;;;5033699;28;20288;-75
2021/12/09 10:44:50;;;;;;;9.18;8.38;;;3.20;99.90;;;;;;5028195;28;20601;-79
2021/12/09 10:47:34;;;;;;;9.90;8.95;;;3.30;99.90;;;;;;5032766;28;20230;-77
2021/12/09 10:50:11;;;;;;;11.10;9.98;;;3.30;99.90;;;;;;5029844;28;20226;-78
2021/12/09 10:52:43;;;;;;;11.57;10.40;;;3.40;99.90;;;;;;5034799;28;20218;-76
2021/12/09 10:55:19;;;;;;;10.50;9.57;;;3.40;99.90;;;;;;5035110;28;20230;-78
2021/12/09 10:57:53;;;;;;;9.25;8.35;;;3.50;99.90;;;;;;5034196;28;20230;-75
2021/12/09 11:00:39;;;;;;;8.75;7.95;;;3.50;99.90;;;;;;5030675;28;20735;-75
2021/12/09 11:03:10;;;;;;;7.38;6.68;;;3.60;99.90;;;;;;5035179;28;20680;-75
2021/12/09 11:05:40;;;;;;;6.10;5.50;;;3.60;99.90;;;;;;5027765;28;20311;-75
2021/12/09 11:08:21;;;;;;;5.63;5.20;;;3.50;99.90;;;;;;5030786;28;20226;-75
2021/12/09 11:10:59;;;;;;;5.53;5.13;;;3.60;99.90;;;;;;5029306;28;20218;-76
2021/12/09 11:13:38;;;;;;;4.65;4.25;;;3.60;99.90;;;;;;5034239;28;20222;-76
2021/12/09 11:16:07;;;;;;;5.18;4.88;;;3.60;99.90;;;;;;5032617;28;20800;-78
2021/12/09 11:18:39;;;;;;;4.32;4.03;;;3.70;99.90;;;;;;5031388;28;20242;-77
2021/12/09 11:21:10;;;;;;;6.00;5.50;;;3.80;99.90;;;;;;5027134;28;20234;-76
2021/12/09 11:23:42;;;;;;;11.88;6.85;;;3.80;99.90;;;;;;5030746;28;20621;-77
2021/12/09 11:26:36;;;;;;;5.53;4.68;;;4.20;99.90;;;;;;5032000;28;20226;-77
2021/12/09 11:29:08;;;;;;;8.05;6.25;;;4.50;99.90;;;;;;5028114;28;20239;-79
2021/12/09 11:31:41;;;;;;;11.90;5.55;;;4.60;99.90;;;;;;5030215;28;20304;-76
2021/12/09 11:34:13;;;;;;;6.40;5.43;;;4.80;99.90;;;;;;5030143;28;20257;-76
2021/12/09 11:36:43;;;;;;;4.93;4.53;;;4.80;99.90;;;;;;5026453;28;20229;-76
2021/12/09 11:39:18;;;;;;;4.38;4.07;;;4.70;99.90;;;;;;5030548;28;20230;-76
2021/12/09 11:41:46;;;;;;;4.40;4.10;;;4.60;99.90;;;;;;5026458;28;20235;-77
2021/12/09 11:44:13;;;;;;;4.30;4.00;;;4.60;99.90;;;;;;5025335;28;20724;-78
2021/12/09 11:46:43;;;;;;;4.50;4.13;;;4.60;99.90;;;;;;5034628;28;20323;-78
2021/12/09 11:49:10;;;;;;;3.72;3.47;;;4.50;99.90;;;;;;5025590;28;20219;-76
2021/12/09 11:51:39;;;;;;;3.92;3.63;;;4.50;99.90;;;;;;5034790;28;20222;-74
2021/12/09 11:54:09;;;;;;;3.83;3.55;;;4.60;99.90;;;;;;5030298;28;20250;-76
2021/12/09 11:56:55;;;;;;;4.60;4.30;;;4.50;99.90;;;;;;5030267;28;20231;-76
2021/12/09 11:59:42;;;;;;;4.45;4.15;;;4.50;99.90;;;;;;5028185;28;20292;-77
2021/12/09 12:11:17;;;;;;;4.55;4.25;;;4.50;99.90;;;;;;5032481;28;20348;-76
2021/12/09 12:13:52;;;;;;;4.45;4.15;;;4.50;99.90;;;;;;5033022;28;20223;-75
2021/12/09 12:19:26;;;;;;;5.60;5.10;;;4.20;99.90;;;;;;5032982;28;20235;-77
2021/12/09 12:22:30;;;;;;;4.88;4.47;;;4.20;99.90;;;;;;5032330;28;20221;-77
2021/12/09 12:27:57;;;;;;;6.13;5.35;;;4.30;99.90;;;;;;5032175;28;20238;-77
2021/12/09 12:34:01;;;;;;;4.57;4.25;;;4.50;99.90;;;;;;5031388;28;20222;-74
2021/12/09 12:37:07;;;;;;;5.35;4.95;;;4.60;99.90;;;;;;5034094;28;20297;-77
2021/12/09 12:39:56;;;;;;;5.25;4.82;;;4.60;99.90;;;;;;5037081;28;20245;-77
2021/12/09 12:42:36;;;;;;;5.13;4.72;;;4.50;99.90;;;;;;5036113;28;20227;-75
2021/12/09 12:45:43;;;;;;;4.68;4.38;;;4.50;99.90;;;;;;5035620;28;20242;-76
2021/12/09 12:48:45;;;;;;;5.30;4.82;;;4.50;99.90;;;;;;4995243;28;20215;-75
2021/12/09 12:51:18;;;;;;;6.05;5.55;;;4.50;99.90;;;;;;5034367;28;20230;-76
2021/12/09 12:53:47;;;;;;;6.72;6.18;;;4.60;99.90;;;;;;5029634;28;20746;-75
2021/12/09 12:58:35;;;;;;;5.57;5.13;;;4.70;99.90;;;;;;5086912;27;20301;-76
2021/12/09 13:01:18;;;;;;;5.40;5.00;;;4.60;99.90;;;;;;5088433;27;20297;-77
2021/12/09 13:03:51;;;;;;;6.03;5.43;;;4.50;99.90;;;;;;5086176;27;20273;-76
2021/12/09 13:06:42;;;;;;;5.32;4.93;;;4.60;99.90;;;;;;5089089;27;20307;-74
2021/12/09 13:09:26;;;;;;;5.30;4.90;;;4.60;99.90;;;;;;5086644;27;20305;-75
2021/12/09 13:11:58;;;;;;;5.43;5.03;;;4.60;99.90;;;;;;5086651;27;20871;-74
2021/12/09 13:14:31;;;;;;;5.28;4.78;;;4.50;99.90;;;;;;5092068;27;20224;-75
2021/12/09 13:17:06;;;;;;;5.07;4.68;;;4.60;99.90;;;;;;5094716;27;20308;-76
2021/12/09 13:19:39;;;;;;;5.32;4.93;;;4.60;99.90;;;;;;5091190;27;20247;-75
2021/12/09 13:22:21;;;;;;;5.80;5.32;;;4.70;99.90;;;;;;5093152;27;20224;-76
2021/12/09 13:24:54;;;;;;;5.97;5.47;;;4.70;99.90;;;;;;5089179;27;20615;-76
2021/12/09 13:33:32;;;;;;;7.68;6.97;;;4.70;99.90;;;;;;5094458;27;20277;-77
2021/12/09 13:36:15;;;;;;;8.70;7.90;;;4.70;99.90;;;;;;5085734;27;20217;-75
2021/12/09 13:47:19;;;;;;;57.30;39.45;;;4.60;99.90;;;;;;5093000;27;20239;-76
2021/12/09 13:49:53;;;;;;;33.63;22.90;;;4.60;99.90;;;;;;5091054;27;20256;-77